createdAt,value
2022-10-04T00:04:42.602Z,58.04
2022-10-04T00:09:55.477Z,57.89
2022-10-04T00:15:02.047Z,57.81
2022-10-04T00:20:42.345Z,57.34
2022-10-04T00:25:44.171Z,57.73
2022-10-04T00:31:06.303Z,57.68
2022-10-04T00:36:37.764Z,57.91
2022-10-04T00:41:48.380Z,58.24
2022-10-04T00:46:51.823Z,57.94
2022-10-04T00:51:58.190Z,58.14
2022-10-04T00:57:10.547Z,57.93
2022-10-04T01:02:22.333Z,57.54
2022-10-04T01:07:33.482Z,57.70
2022-10-04T01:12:41.450Z,57.49
2022-10-04T01:18:11.021Z,57.51
2022-10-04T01:23:44.398Z,57.56
2022-10-04T01:28:46.589Z,57.63
2022-10-04T01:33:48.647Z,57.55
2022-10-04T01:38:51.441Z,57.79
2022-10-04T01:43:58.627Z,57.89
2022-10-04T01:49:05.196Z,57.88
2022-10-04T01:54:13.901Z,58.13
2022-10-04T01:59:29.223Z,58.60
2022-10-04T02:04:35.842Z,58.22
2022-10-04T02:09:42.830Z,58.39
2022-10-04T02:14:53.349Z,58.33
2022-10-04T02:19:56.803Z,58.71
2022-10-04T02:24:59.093Z,58.56
2022-10-04T02:30:06.320Z,58.73
2022-10-04T02:35:08.343Z,58.29
2022-10-04T02:40:16.192Z,58.86
2022-10-04T02:45:40.463Z,58.68
2022-10-04T02:50:55.760Z,58.75
2022-10-04T02:55:58.227Z,58.76
2022-10-04T03:01:00.871Z,59.00
2022-10-04T03:06:12.348Z,59.03
2022-10-04T03:11:16.348Z,58.68
2022-10-04T03:16:19.485Z,58.39
2022-10-04T03:21:23.169Z,58.62
2022-10-04T03:26:31.185Z,58.52
2022-10-04T03:31:35.183Z,58.24
2022-10-04T03:36:37.126Z,58.56
2022-10-04T03:41:41.259Z,58.42
2022-10-04T03:46:44.786Z,58.74
2022-10-04T03:51:50.621Z,58.63
2022-10-04T03:56:54.829Z,58.84
2022-10-04T04:02:33.204Z,58.73
2022-10-04T04:07:46.203Z,58.95
2022-10-04T04:13:02.371Z,58.59
2022-10-04T04:18:07.949Z,58.63
2022-10-04T04:23:15.545Z,58.77
2022-10-04T04:28:33.036Z,58.32
2022-10-04T04:33:45.124Z,58.55
2022-10-04T04:39:05.750Z,58.45
2022-10-04T04:44:18.281Z,58.67
2022-10-04T04:49:20.345Z,59.06
2022-10-04T04:54:25.388Z,59.68
2022-10-04T04:59:28.094Z,59.35
2022-10-04T05:04:31.551Z,58.95
2022-10-04T05:09:35.652Z,59.33
2022-10-04T05:14:39.837Z,59.01
2022-10-04T05:19:41.913Z,59.15
2022-10-04T05:24:47.680Z,59.27
2022-10-04T05:30:19.378Z,59.54
2022-10-04T05:35:22.893Z,59.59
2022-10-04T05:40:48.222Z,59.08
2022-10-04T05:46:19.172Z,59.29
2022-10-04T05:51:25.780Z,59.57
2022-10-04T05:56:30.460Z,59.03
2022-10-04T06:02:04.710Z,58.93
2022-10-04T06:07:12.673Z,59.16
2022-10-04T06:12:31.761Z,59.05
2022-10-04T06:17:51.949Z,58.93
2022-10-04T06:23:00.399Z,58.90
2022-10-04T06:28:19.006Z,58.82
2022-10-04T06:33:35.099Z,58.27
2022-10-04T06:38:47.180Z,58.04
2022-10-04T06:44:07.920Z,58.07
2022-10-04T06:49:14.037Z,58.09
2022-10-04T06:54:25.069Z,58.12
2022-10-04T06:59:48.748Z,57.95
2022-10-04T07:05:14.284Z,58.26
2022-10-04T07:10:35.197Z,57.57
2022-10-04T07:16:04.539Z,58.03
2022-10-04T07:21:15.785Z,57.54
2022-10-04T07:26:30.909Z,57.57
2022-10-04T07:31:37.795Z,57.40
2022-10-04T07:36:56.731Z,57.12
2022-10-04T07:42:10.187Z,56.54
2022-10-04T07:47:25.846Z,56.47
2022-10-04T07:52:34.238Z,56.07
2022-10-04T07:57:36.089Z,55.88
2022-10-04T08:03:26.363Z,55.85
2022-10-04T08:09:01.212Z,55.58
2022-10-04T08:14:25.786Z,55.46
2022-10-04T08:19:57.058Z,55.36
2022-10-04T08:25:01.653Z,55.46
2022-10-04T08:30:06.318Z,55.22
2022-10-04T08:35:16.458Z,55.13
2022-10-04T08:40:53.762Z,55.09
2022-10-04T08:46:24.476Z,54.95
2022-10-04T08:51:26.501Z,54.67
2022-10-04T08:56:49.981Z,54.60
2022-10-04T09:02:07.098Z,54.49
2022-10-04T09:07:35.170Z,54.55
2022-10-04T09:13:06.295Z,54.18
2022-10-04T09:18:22.624Z,53.96
2022-10-04T09:23:56.628Z,53.89
2022-10-04T09:29:23.426Z,53.75
2022-10-04T09:34:59.534Z,53.37
2022-10-04T09:40:20.291Z,53.16
2022-10-04T09:45:48.028Z,52.79
2022-10-04T09:51:22.302Z,52.56
2022-10-04T09:56:33.013Z,51.34
2022-10-04T10:01:46.626Z,51.50
2022-10-04T10:06:54.154Z,50.83
2022-10-04T10:12:45.684Z,51.21
2022-10-04T10:18:15.209Z,51.28
2022-10-04T10:23:35.145Z,50.83
2022-10-04T10:28:58.886Z,51.19
2022-10-04T10:34:22.606Z,50.82
2022-10-04T10:40:06.081Z,51.14
2022-10-04T10:45:45.844Z,50.94
2022-10-04T10:51:00.977Z,50.44
2022-10-04T10:56:30.172Z,50.59
2022-10-04T11:01:35.317Z,50.42
2022-10-04T11:07:08.034Z,50.57
2022-10-04T11:12:33.673Z,50.37
2022-10-04T11:17:44.505Z,50.15
2022-10-04T11:23:05.018Z,49.38
2022-10-04T11:28:26.593Z,49.45
2022-10-04T11:33:40.339Z,49.23
2022-10-04T11:39:08.289Z,49.03
2022-10-04T11:44:34.315Z,48.60
2022-10-04T11:49:42.136Z,47.77
2022-10-04T11:55:21.250Z,45.95
2022-10-04T12:00:32.013Z,46.22
2022-10-04T12:05:51.790Z,46.32
2022-10-04T12:11:18.755Z,46.57
2022-10-04T12:16:46.722Z,46.67
2022-10-04T12:22:09.059Z,46.43
2022-10-04T12:27:31.026Z,46.95
2022-10-04T12:32:35.721Z,46.25
2022-10-04T12:38:14.673Z,44.68
2022-10-04T12:43:30.937Z,44.19
2022-10-04T12:49:02.003Z,42.86
2022-10-04T12:54:39.927Z,42.48
2022-10-04T13:00:16.987Z,41.82
2022-10-04T13:05:27.832Z,40.98
2022-10-04T13:11:03.941Z,41.75
2022-10-04T13:22:11.139Z,41.79
2022-10-04T13:27:20.938Z,41.43
2022-10-04T13:32:33.184Z,41.40
2022-10-04T13:37:53.788Z,41.51
2022-10-04T13:43:34.220Z,41.62
2022-10-04T13:48:51.755Z,40.58
2022-10-04T13:54:43.045Z,39.67
2022-10-04T13:59:52.549Z,37.49
2022-10-04T14:05:00.301Z,37.17
2022-10-04T14:10:17.521Z,35.50
2022-10-04T14:15:48.791Z,35.65
2022-10-04T14:20:59.969Z,37.31
2022-10-04T14:26:23.366Z,37.27
2022-10-04T14:32:13.010Z,37.30
2022-10-04T14:37:36.577Z,38.27
2022-10-04T14:42:47.656Z,38.19
2022-10-04T14:48:26.757Z,38.36
2022-10-04T14:53:37.281Z,38.62
2022-10-04T14:58:50.394Z,39.29
2022-10-04T15:04:27.260Z,39.10
2022-10-04T15:10:12.652Z,38.89
2022-10-04T15:15:26.306Z,39.06
2022-10-04T15:20:57.663Z,39.06
2022-10-04T15:26:25.948Z,39.34
2022-10-04T15:32:07.411Z,39.51
2022-10-04T15:37:44.254Z,39.33
2022-10-04T15:43:36.861Z,39.50
2022-10-04T15:48:50.399Z,39.95
2022-10-04T15:54:05.894Z,39.94
2022-10-04T15:59:33.595Z,39.92
2022-10-04T16:04:43.473Z,39.97
2022-10-04T16:10:12.642Z,40.24
2022-10-04T16:15:19.534Z,40.50
2022-10-04T16:21:15.581Z,40.86
2022-10-04T16:26:17.318Z,41.15
2022-10-04T16:31:38.398Z,41.25
2022-10-04T16:36:46.784Z,41.58
2022-10-04T16:42:06.449Z,41.96
2022-10-04T16:47:27.501Z,42.00
2022-10-04T16:52:52.676Z,42.59
2022-10-04T16:58:28.815Z,42.39
2022-10-04T17:03:36.521Z,42.81
2022-10-04T17:09:22.841Z,43.16
2022-10-04T17:14:48.219Z,43.28
2022-10-04T17:20:17.967Z,43.60
2022-10-04T17:25:48.701Z,43.70
2022-10-04T17:30:58.490Z,43.96
2022-10-04T17:36:14.181Z,43.72
2022-10-04T17:41:59.601Z,43.77
2022-10-04T17:47:26.893Z,44.08
2022-10-04T17:52:58.813Z,44.30
2022-10-04T17:58:11.418Z,44.16
2022-10-04T18:03:19.294Z,44.20
2022-10-04T18:08:39.441Z,44.24
2022-10-04T18:13:51.244Z,44.21
2022-10-04T18:18:53.399Z,44.50
2022-10-04T18:24:02.270Z,44.59
2022-10-04T18:29:09.243Z,44.52
2022-10-04T18:34:10.996Z,44.53
2022-10-04T18:39:13.027Z,44.53
2022-10-04T18:44:17.402Z,44.71
2022-10-04T18:49:27.359Z,44.75
2022-10-04T18:54:37.174Z,45.08
2022-10-04T19:00:00.589Z,45.18
2022-10-04T19:05:11.904Z,45.00
2022-10-04T19:10:39.929Z,45.02
2022-10-04T19:15:44.631Z,45.12
2022-10-04T19:21:09.624Z,45.21
2022-10-04T19:26:32.917Z,45.21
2022-10-04T19:31:54.739Z,45.51
2022-10-04T19:37:09.162Z,45.66
2022-10-04T19:42:32.082Z,45.72
2022-10-04T19:47:42.486Z,45.63
2022-10-04T19:52:47.280Z,45.48
2022-10-04T19:58:05.420Z,45.74
2022-10-04T20:03:14.064Z,45.73
2022-10-04T20:08:51.237Z,45.90
2022-10-04T20:14:16.959Z,45.99
2022-10-04T20:19:40.674Z,46.39
2022-10-04T20:24:42.506Z,46.27
2022-10-04T20:29:53.423Z,46.41
2022-10-04T20:34:57.456Z,46.07
2022-10-04T20:39:59.566Z,46.21
2022-10-04T20:45:05.991Z,46.11
2022-10-04T20:50:12.064Z,46.33
2022-10-04T20:55:27.533Z,46.47
2022-10-04T21:00:34.276Z,46.51
2022-10-04T21:05:37.349Z,46.81
2022-10-04T21:11:08.906Z,46.92
2022-10-04T21:16:10.904Z,46.93
2022-10-04T21:21:14.760Z,46.70
2022-10-04T21:26:24.574Z,47.00
2022-10-04T21:31:26.629Z,46.92
2022-10-04T21:36:28.634Z,47.07
2022-10-04T21:41:30.481Z,47.14
2022-10-04T21:46:32.451Z,47.09
2022-10-04T21:51:37.316Z,47.45
2022-10-04T21:56:39.173Z,47.45
2022-10-04T22:01:41.064Z,47.23
2022-10-04T22:06:43.478Z,47.06
2022-10-04T22:11:45.567Z,47.63
2022-10-04T22:16:47.784Z,47.55
2022-10-04T22:21:49.918Z,47.38
2022-10-04T22:26:51.783Z,47.53
2022-10-04T22:31:53.669Z,47.50
2022-10-04T22:36:55.819Z,48.01
2022-10-04T22:42:00.820Z,48.31
2022-10-04T22:47:04.390Z,47.78
2022-10-04T22:52:18.813Z,47.96
2022-10-04T22:57:21.016Z,48.10
2022-10-04T23:02:28.321Z,48.12
2022-10-04T23:07:32.787Z,47.88
2022-10-04T23:12:37.097Z,47.92
2022-10-04T23:17:39.818Z,47.73
2022-10-04T23:22:46.412Z,47.79
2022-10-04T23:27:48.810Z,47.82
2022-10-04T23:32:53.062Z,48.07
2022-10-04T23:37:55.226Z,47.71
2022-10-04T23:42:58.027Z,47.68
2022-10-04T23:48:01.435Z,47.72
2022-10-04T23:53:09.202Z,47.89
2022-10-04T23:58:20.900Z,47.86
